sensor_id;sensor_type;location;lat;lon;timestamp;temperature;humidity
26262;DHT22;13988;52.446;13.280;2022-09-24T00:01:11;10.10;99.90
26262;DHT22;13988;52.446;13.280;2022-09-24T00:03:38;10.10;99.90
26262;DHT22;13988;52.446;13.280;2022-09-24T00:06:06;9.90;99.90
26262;DHT22;13988;52.446;13.280;2022-09-24T00:08:32;9.90;99.90
26262;DHT22;13988;52.446;13.280;2022-09-24T00:11:01;9.90;99.90
26262;DHT22;13988;52.446;13.280;2022-09-24T00:13:27;9.80;99.90
26262;DHT22;13988;52.446;13.280;2022-09-24T00:15:52;9.70;99.90
26262;DHT22;13988;52.446;13.280;2022-09-24T00:18:18;9.70;99.90
26262;DHT22;13988;52.446;13.280;2022-09-24T00:20:46;9.80;99.90
26262;DHT22;13988;52.446;13.280;2022-09-24T00:23:12;9.90;99.90
26262;DHT22;13988;52.446;13.280;2022-09-24T00:25:42;9.80;99.90
26262;DHT22;13988;52.446;13.280;2022-09-24T00:28:27;9.90;99.90
26262;DHT22;13988;52.446;13.280;2022-09-24T00:30:52;9.80;99.90
26262;DHT22;13988;52.446;13.280;2022-09-24T00:33:18;9.90;99.90
26262;DHT22;13988;52.446;13.280;2022-09-24T00:35:44;9.80;99.90
26262;DHT22;13988;52.446;13.280;2022-09-24T00:38:10;9.80;99.90
26262;DHT22;13988;52.446;13.280;2022-09-24T00:40:37;9.70;99.90
26262;DHT22;13988;52.446;13.280;2022-09-24T00:43:27;9.70;99.90
26262;DHT22;13988;52.446;13.280;2022-09-24T00:49:03;9.60;99.90
26262;DHT22;13988;52.446;13.280;2022-09-24T00:51:30;9.50;99.90
26262;DHT22;13988;52.446;13.280;2022-09-24T00:54:04;9.40;99.90
26262;DHT22;13988;52.446;13.280;2022-09-24T00:56:32;9.50;99.90
26262;DHT22;13988;52.446;13.280;2022-09-24T00:59:01;9.50;99.90
26262;DHT22;13988;52.446;13.280;2022-09-24T01:01:28;9.50;99.90
26262;DHT22;13988;52.446;13.280;2022-09-24T01:03:55;9.50;99.90
26262;DHT22;13988;52.446;13.280;2022-09-24T01:06:22;9.50;99.90
26262;DHT22;13988;52.446;13.280;2022-09-24T01:08:48;9.60;99.90
26262;DHT22;13988;52.446;13.280;2022-09-24T01:11:52;9.60;99.90
26262;DHT22;13988;52.446;13.280;2022-09-24T01:17:10;9.70;99.90
26262;DHT22;13988;52.446;13.280;2022-09-24T01:31:07;9.70;99.90
26262;DHT22;13988;52.446;13.280;2022-09-24T01:33:36;9.70;99.90
26262;DHT22;13988;52.446;13.280;2022-09-24T01:36:03;9.70;99.90
26262;DHT22;13988;52.446;13.280;2022-09-24T01:38:36;9.70;99.90
26262;DHT22;13988;52.446;13.280;2022-09-24T01:41:06;9.70;99.90
26262;DHT22;13988;52.446;13.280;2022-09-24T01:43:33;9.60;99.90
26262;DHT22;13988;52.446;13.280;2022-09-24T01:46:02;9.60;99.90
26262;DHT22;13988;52.446;13.280;2022-09-24T01:48:32;9.70;99.90
26262;DHT22;13988;52.446;13.280;2022-09-24T01:53:40;9.80;99.90
26262;DHT22;13988;52.446;13.280;2022-09-24T01:56:27;9.70;99.90
26262;DHT22;13988;52.446;13.280;2022-09-24T01:59:00;9.70;99.90
26262;DHT22;13988;52.446;13.280;2022-09-24T02:01:37;9.70;99.90
26262;DHT22;13988;52.446;13.280;2022-09-24T02:04:10;9.80;99.90
26262;DHT22;13988;52.446;13.280;2022-09-24T02:06:41;9.80;99.90
26262;DHT22;13988;52.446;13.280;2022-09-24T02:09:47;9.80;99.90
26262;DHT22;13988;52.446;13.280;2022-09-24T02:12:22;9.90;99.90
26262;DHT22;13988;52.446;13.280;2022-09-24T02:14:57;9.90;99.90
26262;DHT22;13988;52.446;13.280;2022-09-24T02:17:27;9.90;99.90
26262;DHT22;13988;52.446;13.280;2022-09-24T02:19:58;9.90;99.90
26262;DHT22;13988;52.446;13.280;2022-09-24T02:22:25;9.90;99.90
26262;DHT22;13988;52.446;13.280;2022-09-24T02:24:53;9.90;99.90
26262;DHT22;13988;52.446;13.280;2022-09-24T02:27:19;9.90;99.90
26262;DHT22;13988;52.446;13.280;2022-09-24T02:29:45;9.90;99.90
26262;DHT22;13988;52.446;13.280;2022-09-24T02:32:14;10.00;99.90
26262;DHT22;13988;52.446;13.280;2022-09-24T02:34:44;10.00;99.90
26262;DHT22;13988;52.446;13.280;2022-09-24T02:37:13;10.00;99.90
26262;DHT22;13988;52.446;13.280;2022-09-24T02:39:39;10.00;99.90
26262;DHT22;13988;52.446;13.280;2022-09-24T02:42:07;9.90;99.90
26262;DHT22;13988;52.446;13.280;2022-09-24T02:44:34;9.90;99.90
26262;DHT22;13988;52.446;13.280;2022-09-24T02:47:00;9.90;99.90
26262;DHT22;13988;52.446;13.280;2022-09-24T02:49:26;9.90;99.90
26262;DHT22;13988;52.446;13.280;2022-09-24T02:51:52;9.90;99.90
26262;DHT22;13988;52.446;13.280;2022-09-24T02:54:18;10.00;99.90
26262;DHT22;13988;52.446;13.280;2022-09-24T02:56:43;10.00;99.90
26262;DHT22;13988;52.446;13.280;2022-09-24T02:59:09;10.00;99.90
26262;DHT22;13988;52.446;13.280;2022-09-24T03:01:35;10.00;99.90
26262;DHT22;13988;52.446;13.280;2022-09-24T03:04:01;9.90;99.90
26262;DHT22;13988;52.446;13.280;2022-09-24T03:06:27;10.00;99.90
26262;DHT22;13988;52.446;13.280;2022-09-24T03:08:53;10.00;99.90
26262;DHT22;13988;52.446;13.280;2022-09-24T03:11:19;9.90;99.90
26262;DHT22;13988;52.446;13.280;2022-09-24T03:13:49;10.00;99.90
26262;DHT22;13988;52.446;13.280;2022-09-24T03:16:16;10.00;99.90
26262;DHT22;13988;52.446;13.280;2022-09-24T03:18:41;10.10;99.90
26262;DHT22;13988;52.446;13.280;2022-09-24T03:21:11;10.00;99.90
26262;DHT22;13988;52.446;13.280;2022-09-24T03:23:37;10.00;99.90
26262;DHT22;13988;52.446;13.280;2022-09-24T03:26:03;9.90;99.90
26262;DHT22;13988;52.446;13.280;2022-09-24T03:28:29;9.90;99.90
26262;DHT22;13988;52.446;13.280;2022-09-24T03:30:54;10.00;99.90
26262;DHT22;13988;52.446;13.280;2022-09-24T03:33:38;10.00;99.90
26262;DHT22;13988;52.446;13.280;2022-09-24T03:36:11;10.00;99.90
26262;DHT22;13988;52.446;13.280;2022-09-24T03:38:38;10.10;99.90
26262;DHT22;13988;52.446;13.280;2022-09-24T03:41:05;10.10;99.90
26262;DHT22;13988;52.446;13.280;2022-09-24T03:43:32;10.00;99.90
26262;DHT22;13988;52.446;13.280;2022-09-24T03:45:58;9.90;99.90
26262;DHT22;13988;52.446;13.280;2022-09-24T03:48:24;10.00;99.90
26262;DHT22;13988;52.446;13.280;2022-09-24T03:50:50;10.00;99.90
26262;DHT22;13988;52.446;13.280;2022-09-24T03:53:17;10.00;99.90
26262;DHT22;13988;52.446;13.280;2022-09-24T03:55:53;9.90;99.90
26262;DHT22;13988;52.446;13.280;2022-09-24T03:58:19;9.90;99.90
26262;DHT22;13988;52.446;13.280;2022-09-24T04:00:45;10.00;99.90
26262;DHT22;13988;52.446;13.280;2022-09-24T04:03:11;10.10;99.90
26262;DHT22;13988;52.446;13.280;2022-09-24T04:05:37;10.00;99.90
26262;DHT22;13988;52.446;13.280;2022-09-24T04:08:02;10.00;99.90
26262;DHT22;13988;52.446;13.280;2022-09-24T04:10:29;10.00;99.90
26262;DHT22;13988;52.446;13.280;2022-09-24T04:12:55;10.00;99.90
26262;DHT22;13988;52.446;13.280;2022-09-24T04:15:21;10.10;99.90
26262;DHT22;13988;52.446;13.280;2022-09-24T04:17:55;10.00;99.90
26262;DHT22;13988;52.446;13.280;2022-09-24T04:20:23;10.00;99.90
26262;DHT22;13988;52.446;13.280;2022-09-24T04:22:50;10.00;99.90
26262;DHT22;13988;52.446;13.280;2022-09-24T04:25:16;9.90;99.90
26262;DHT22;13988;52.446;13.280;2022-09-24T04:27:44;9.90;99.90
26262;DHT22;13988;52.446;13.280;2022-09-24T04:30:12;10.00;99.90
26262;DHT22;13988;52.446;13.280;2022-09-24T04:32:40;10.00;99.90
26262;DHT22;13988;52.446;13.280;2022-09-24T04:35:06;9.90;99.90
26262;DHT22;13988;52.446;13.280;2022-09-24T04:37:32;9.90;99.90
26262;DHT22;13988;52.446;13.280;2022-09-24T04:39:57;10.00;99.90
26262;DHT22;13988;52.446;13.280;2022-09-24T04:42:23;10.00;99.90
26262;DHT22;13988;52.446;13.280;2022-09-24T04:44:49;9.90;99.90
26262;DHT22;13988;52.446;13.280;2022-09-24T04:47:15;9.90;99.90
26262;DHT22;13988;52.446;13.280;2022-09-24T04:49:41;9.90;99.90
26262;DHT22;13988;52.446;13.280;2022-09-24T04:52:09;10.00;99.90
26262;DHT22;13988;52.446;13.280;2022-09-24T04:54:35;10.00;99.90
26262;DHT22;13988;52.446;13.280;2022-09-24T04:57:00;10.00;99.90
26262;DHT22;13988;52.446;13.280;2022-09-24T04:59:26;9.90;99.90
26262;DHT22;13988;52.446;13.280;2022-09-24T05:01:52;9.90;99.90
26262;DHT22;13988;52.446;13.280;2022-09-24T05:04:18;10.00;99.90
26262;DHT22;13988;52.446;13.280;2022-09-24T05:06:44;10.00;99.90
26262;DHT22;13988;52.446;13.280;2022-09-24T05:09:09;10.00;99.90
26262;DHT22;13988;52.446;13.280;2022-09-24T05:11:35;10.10;99.90
26262;DHT22;13988;52.446;13.280;2022-09-24T05:14:01;10.10;99.90
26262;DHT22;13988;52.446;13.280;2022-09-24T05:16:26;10.00;99.90
26262;DHT22;13988;52.446;13.280;2022-09-24T05:18:52;10.00;99.90
26262;DHT22;13988;52.446;13.280;2022-09-24T05:21:18;10.00;99.90
26262;DHT22;13988;52.446;13.280;2022-09-24T05:23:44;10.10;99.90
26262;DHT22;13988;52.446;13.280;2022-09-24T05:26:10;10.10;99.90
26262;DHT22;13988;52.446;13.280;2022-09-24T05:28:54;10.10;99.90
26262;DHT22;13988;52.446;13.280;2022-09-24T05:31:19;10.10;99.90
26262;DHT22;13988;52.446;13.280;2022-09-24T05:33:45;10.10;99.90
26262;DHT22;13988;52.446;13.280;2022-09-24T05:36:10;10.20;99.90
26262;DHT22;13988;52.446;13.280;2022-09-24T05:38:36;10.20;99.90
26262;DHT22;13988;52.446;13.280;2022-09-24T05:41:01;10.20;99.90
26262;DHT22;13988;52.446;13.280;2022-09-24T05:43:28;10.30;99.90
26262;DHT22;13988;52.446;13.280;2022-09-24T05:45:53;10.30;99.90
26262;DHT22;13988;52.446;13.280;2022-09-24T05:48:21;10.30;99.90
26262;DHT22;13988;52.446;13.280;2022-09-24T05:50:46;10.40;99.90
26262;DHT22;13988;52.446;13.280;2022-09-24T05:53:12;10.40;99.90
26262;DHT22;13988;52.446;13.280;2022-09-24T05:55:38;10.40;99.90
26262;DHT22;13988;52.446;13.280;2022-09-24T05:58:05;10.40;99.90
26262;DHT22;13988;52.446;13.280;2022-09-24T06:00:32;10.40;99.90
26262;DHT22;13988;52.446;13.280;2022-09-24T06:03:14;10.40;99.90
26262;DHT22;13988;52.446;13.280;2022-09-24T06:05:45;10.40;99.90
26262;DHT22;13988;52.446;13.280;2022-09-24T06:08:11;10.40;99.90
26262;DHT22;13988;52.446;13.280;2022-09-24T06:10:40;10.50;99.90
26262;DHT22;13988;52.446;13.280;2022-09-24T06:13:05;10.40;99.90
26262;DHT22;13988;52.446;13.280;2022-09-24T06:15:31;10.40;99.90
26262;DHT22;13988;52.446;13.280;2022-09-24T06:17:57;10.50;99.90
26262;DHT22;13988;52.446;13.280;2022-09-24T06:20:22;10.50;99.90
26262;DHT22;13988;52.446;13.280;2022-09-24T06:22:48;10.50;99.90
26262;DHT22;13988;52.446;13.280;2022-09-24T06:25:15;10.60;99.90
26262;DHT22;13988;52.446;13.280;2022-09-24T06:27:40;10.60;99.90
26262;DHT22;13988;52.446;13.280;2022-09-24T06:30:06;10.60;99.90
26262;DHT22;13988;52.446;13.280;2022-09-24T06:32:32;10.70;99.90
26262;DHT22;13988;52.446;13.280;2022-09-24T06:34:58;10.90;99.90
26262;DHT22;13988;52.446;13.280;2022-09-24T06:37:23;10.80;99.90
26262;DHT22;13988;52.446;13.280;2022-09-24T06:39:49;10.90;99.90
26262;DHT22;13988;52.446;13.280;2022-09-24T06:42:14;11.00;99.90
26262;DHT22;13988;52.446;13.280;2022-09-24T06:44:40;11.10;99.90
26262;DHT22;13988;52.446;13.280;2022-09-24T06:47:06;11.20;99.90
26262;DHT22;13988;52.446;13.280;2022-09-24T06:49:32;11.40;99.90
26262;DHT22;13988;52.446;13.280;2022-09-24T06:51:57;11.40;99.90
26262;DHT22;13988;52.446;13.280;2022-09-24T06:54:23;11.40;99.90
26262;DHT22;13988;52.446;13.280;2022-09-24T06:56:49;11.50;99.90
26262;DHT22;13988;52.446;13.280;2022-09-24T06:59:17;11.40;99.90
26262;DHT22;13988;52.446;13.280;2022-09-24T07:01:42;11.50;99.90
26262;DHT22;13988;52.446;13.280;2022-09-24T07:04:08;11.40;99.90
26262;DHT22;13988;52.446;13.280;2022-09-24T07:06:34;11.50;99.90
26262;DHT22;13988;52.446;13.280;2022-09-24T07:09:18;11.50;99.90
26262;DHT22;13988;52.446;13.280;2022-09-24T07:11:43;11.60;99.90
26262;DHT22;13988;52.446;13.280;2022-09-24T07:14:11;11.70;99.90
26262;DHT22;13988;52.446;13.280;2022-09-24T07:16:37;11.70;99.90
26262;DHT22;13988;52.446;13.280;2022-09-24T07:19:02;11.70;99.90
26262;DHT22;13988;52.446;13.280;2022-09-24T07:21:28;11.70;99.90
26262;DHT22;13988;52.446;13.280;2022-09-24T07:23:53;11.80;99.90
26262;DHT22;13988;52.446;13.280;2022-09-24T07:26:19;11.80;99.90
26262;DHT22;13988;52.446;13.280;2022-09-24T07:28:44;11.80;99.90
26262;DHT22;13988;52.446;13.280;2022-09-24T07:31:10;11.90;99.90
26262;DHT22;13988;52.446;13.280;2022-09-24T07:33:35;11.80;99.90
26262;DHT22;13988;52.446;13.280;2022-09-24T07:36:05;11.90;99.90
26262;DHT22;13988;52.446;13.280;2022-09-24T07:38:34;11.90;99.90
26262;DHT22;13988;52.446;13.280;2022-09-24T07:41:01;11.90;99.90
26262;DHT22;13988;52.446;13.280;2022-09-24T07:43:28;11.90;99.90
26262;DHT22;13988;52.446;13.280;2022-09-24T07:45:56;12.00;99.90
26262;DHT22;13988;52.446;13.280;2022-09-24T07:48:22;12.10;99.90
26262;DHT22;13988;52.446;13.280;2022-09-24T07:50:50;12.10;99.90
26262;DHT22;13988;52.446;13.280;2022-09-24T07:53:16;12.20;99.90
26262;DHT22;13988;52.446;13.280;2022-09-24T07:55:42;12.10;99.90
26262;DHT22;13988;52.446;13.280;2022-09-24T07:58:11;12.20;99.90
26262;DHT22;13988;52.446;13.280;2022-09-24T08:00:37;12.20;99.90
26262;DHT22;13988;52.446;13.280;2022-09-24T08:03:03;12.30;99.90
26262;DHT22;13988;52.446;13.280;2022-09-24T08:05:30;12.50;99.90
26262;DHT22;13988;52.446;13.280;2022-09-24T08:07:56;12.50;99.90
26262;DHT22;13988;52.446;13.280;2022-09-24T08:10:23;12.60;99.90
26262;DHT22;13988;52.446;13.280;2022-09-24T08:12:49;12.60;99.90
26262;DHT22;13988;52.446;13.280;2022-09-24T08:15:15;12.80;99.90
26262;DHT22;13988;52.446;13.280;2022-09-24T08:17:41;12.70;99.90
26262;DHT22;13988;52.446;13.280;2022-09-24T08:20:07;12.80;99.90
26262;DHT22;13988;52.446;13.280;2022-09-24T08:22:32;12.80;99.90
26262;DHT22;13988;52.446;13.280;2022-09-24T08:24:58;13.00;99.90
26262;DHT22;13988;52.446;13.280;2022-09-24T08:27:24;13.10;99.90
26262;DHT22;13988;52.446;13.280;2022-09-24T08:29:51;13.20;99.90
26262;DHT22;13988;52.446;13.280;2022-09-24T08:32:16;13.10;99.90
26262;DHT22;13988;52.446;13.280;2022-09-24T08:34:43;13.20;99.90
26262;DHT22;13988;52.446;13.280;2022-09-24T08:37:10;13.30;99.90
26262;DHT22;13988;52.446;13.280;2022-09-24T08:39:35;13.50;99.90
26262;DHT22;13988;52.446;13.280;2022-09-24T08:42:03;13.50;99.90
26262;DHT22;13988;52.446;13.280;2022-09-24T08:44:46;13.60;99.90
26262;DHT22;13988;52.446;13.280;2022-09-24T08:50:19;13.80;99.90
26262;DHT22;13988;52.446;13.280;2022-09-24T08:55:47;13.80;99.90
26262;DHT22;13988;52.446;13.280;2022-09-24T08:58:19;13.90;99.90
26262;DHT22;13988;52.446;13.280;2022-09-24T09:00:59;13.80;99.90
26262;DHT22;13988;52.446;13.280;2022-09-24T09:06:39;13.60;99.90
26262;DHT22;13988;52.446;13.280;2022-09-24T09:09:10;13.60;99.90
26262;DHT22;13988;52.446;13.280;2022-09-24T09:11:38;13.70;99.90
26262;DHT22;13988;52.446;13.280;2022-09-24T09:14:12;13.80;99.90
26262;DHT22;13988;52.446;13.280;2022-09-24T09:16:50;13.90;99.90
26262;DHT22;13988;52.446;13.280;2022-09-24T09:19:17;14.00;99.90
26262;DHT22;13988;52.446;13.280;2022-09-24T09:21:51;14.30;99.90
26262;DHT22;13988;52.446;13.280;2022-09-24T09:24:34;14.40;99.90
26262;DHT22;13988;52.446;13.280;2022-09-24T09:27:00;14.30;99.90
26262;DHT22;13988;52.446;13.280;2022-09-24T09:29:27;14.20;99.90
26262;DHT22;13988;52.446;13.280;2022-09-24T09:32:11;14.30;99.90
26262;DHT22;13988;52.446;13.280;2022-09-24T09:34:48;14.30;99.90
26262;DHT22;13988;52.446;13.280;2022-09-24T09:37:30;14.30;99.90
26262;DHT22;13988;52.446;13.280;2022-09-24T09:42:36;14.30;99.90
26262;DHT22;13988;52.446;13.280;2022-09-24T09:46:17;14.10;99.90
26262;DHT22;13988;52.446;13.280;2022-09-24T09:48:09;14.30;99.90
26262;DHT22;13988;52.446;13.280;2022-09-24T09:50:48;14.40;99.90
26262;DHT22;13988;52.446;13.280;2022-09-24T09:53:20;14.60;99.90
26262;DHT22;13988;52.446;13.280;2022-09-24T09:55:55;14.70;99.90
26262;DHT22;13988;52.446;13.280;2022-09-24T09:58:22;14.90;99.90
26262;DHT22;13988;52.446;13.280;2022-09-24T10:00:48;14.90;99.90
26262;DHT22;13988;52.446;13.280;2022-09-24T10:03:25;14.80;99.90
26262;DHT22;13988;52.446;13.280;2022-09-24T10:05:56;14.90;99.90
26262;DHT22;13988;52.446;13.280;2022-09-24T10:08:23;14.90;99.90
26262;DHT22;13988;52.446;13.280;2022-09-24T10:10:57;14.90;99.90
26262;DHT22;13988;52.446;13.280;2022-09-24T10:13:23;14.90;99.90
26262;DHT22;13988;52.446;13.280;2022-09-24T10:15:50;15.00;99.90
26262;DHT22;13988;52.446;13.280;2022-09-24T10:18:16;15.00;99.90
26262;DHT22;13988;52.446;13.280;2022-09-24T10:20:47;15.00;99.90
26262;DHT22;13988;52.446;13.280;2022-09-24T10:23:39;15.20;99.90
26262;DHT22;13988;52.446;13.280;2022-09-24T10:26:05;15.20;99.90
26262;DHT22;13988;52.446;13.280;2022-09-24T10:28:38;15.20;99.90
26262;DHT22;13988;52.446;13.280;2022-09-24T10:31:25;15.20;99.90
26262;DHT22;13988;52.446;13.280;2022-09-24T10:33:54;15.30;99.90
26262;DHT22;13988;52.446;13.280;2022-09-24T10:36:23;15.20;99.90
26262;DHT22;13988;52.446;13.280;2022-09-24T10:39:07;15.10;99.90
26262;DHT22;13988;52.446;13.280;2022-09-24T10:41:34;15.00;99.90
26262;DHT22;13988;52.446;13.280;2022-09-24T10:44:04;15.00;99.90
26262;DHT22;13988;52.446;13.280;2022-09-24T11:09:16;15.70;99.90
26262;DHT22;13988;52.446;13.280;2022-09-24T11:12:07;15.70;99.90
26262;DHT22;13988;52.446;13.280;2022-09-24T11:17:37;15.60;99.90
26262;DHT22;13988;52.446;13.280;2022-09-24T11:31:11;16.10;99.90
26262;DHT22;13988;52.446;13.280;2022-09-24T11:34:08;16.40;99.90
26262;DHT22;13988;52.446;13.280;2022-09-24T11:36:45;16.40;99.90
26262;DHT22;13988;52.446;13.280;2022-09-24T11:42:21;16.60;99.90
26262;DHT22;13988;52.446;13.280;2022-09-24T11:48:15;16.40;99.90
26262;DHT22;13988;52.446;13.280;2022-09-24T11:53:37;16.20;99.90
26262;DHT22;13988;52.446;13.280;2022-09-24T11:56:14;16.40;99.90
26262;DHT22;13988;52.446;13.280;2022-09-24T11:58:55;16.40;99.90
26262;DHT22;13988;52.446;13.280;2022-09-24T12:01:27;16.40;99.90
26262;DHT22;13988;52.446;13.280;2022-09-24T12:03:57;16.20;99.90
26262;DHT22;13988;52.446;13.280;2022-09-24T12:09:20;16.20;99.90
26262;DHT22;13988;52.446;13.280;2022-09-24T12:12:05;16.20;99.90
26262;DHT22;13988;52.446;13.280;2022-09-24T12:14:51;16.20;99.90
26262;DHT22;13988;52.446;13.280;2022-09-24T12:17:26;16.30;99.90
26262;DHT22;13988;52.446;13.280;2022-09-24T12:20:01;16.40;99.90
26262;DHT22;13988;52.446;13.280;2022-09-24T12:22:30;16.50;99.90
26262;DHT22;13988;52.446;13.280;2022-09-24T12:24:59;16.30;99.90
26262;DHT22;13988;52.446;13.280;2022-09-24T12:27:33;16.40;99.90
26262;DHT22;13988;52.446;13.280;2022-09-24T12:30:20;16.70;99.90
26262;DHT22;13988;52.446;13.280;2022-09-24T12:33:33;16.40;99.90
26262;DHT22;13988;52.446;13.280;2022-09-24T12:36:13;16.60;99.90
26262;DHT22;13988;52.446;13.280;2022-09-24T12:38:53;16.90;99.90
26262;DHT22;13988;52.446;13.280;2022-09-24T12:41:28;17.20;99.90
26262;DHT22;13988;52.446;13.280;2022-09-24T12:46:54;16.80;99.90
26262;DHT22;13988;52.446;13.280;2022-09-24T12:51:58;16.70;99.90
26262;DHT22;13988;52.446;13.280;2022-09-24T12:57:15;16.80;99.90
26262;DHT22;13988;52.446;13.280;2022-09-24T12:59:51;16.80;99.90
26262;DHT22;13988;52.446;13.280;2022-09-24T13:04:44;17.50;99.90
26262;DHT22;13988;52.446;13.280;2022-09-24T13:07:39;17.60;99.90
26262;DHT22;13988;52.446;13.280;2022-09-24T13:12:43;17.10;99.90
26262;DHT22;13988;52.446;13.280;2022-09-24T13:15:24;16.90;99.90
26262;DHT22;13988;52.446;13.280;2022-09-24T13:20:34;16.70;99.90
26262;DHT22;13988;52.446;13.280;2022-09-24T13:26:00;16.80;99.90
26262;DHT22;13988;52.446;13.280;2022-09-24T13:39:19;17.50;99.90
26262;DHT22;13988;52.446;13.280;2022-09-24T13:42:05;17.50;99.90
26262;DHT22;13988;52.446;13.280;2022-09-24T13:44:39;17.50;99.90
26262;DHT22;13988;52.446;13.280;2022-09-24T13:47:18;17.10;99.90
26262;DHT22;13988;52.446;13.280;2022-09-24T13:49:50;17.10;99.90
26262;DHT22;13988;52.446;13.280;2022-09-24T13:52:31;17.00;99.90
26262;DHT22;13988;52.446;13.280;2022-09-24T13:55:20;16.80;99.90
26262;DHT22;13988;52.446;13.280;2022-09-24T13:57:47;17.10;99.90
26262;DHT22;13988;52.446;13.280;2022-09-24T14:00:22;17.40;99.90
26262;DHT22;13988;52.446;13.280;2022-09-24T14:05:17;17.60;99.90
26262;DHT22;13988;52.446;13.280;2022-09-24T14:08:00;17.20;99.90
26262;DHT22;13988;52.446;13.280;2022-09-24T14:10:26;17.20;99.90
26262;DHT22;13988;52.446;13.280;2022-09-24T14:13:23;17.20;99.90
26262;DHT22;13988;52.446;13.280;2022-09-24T14:15:54;17.20;99.90
26262;DHT22;13988;52.446;13.280;2022-09-24T14:18:20;17.30;99.90
26262;DHT22;13988;52.446;13.280;2022-09-24T14:21:32;17.10;99.90
26262;DHT22;13988;52.446;13.280;2022-09-24T14:26:33;17.40;99.90
26262;DHT22;13988;52.446;13.280;2022-09-24T14:29:04;17.00;99.90
26262;DHT22;13988;52.446;13.280;2022-09-24T14:31:31;16.80;99.90
26262;DHT22;13988;52.446;13.280;2022-09-24T14:34:00;16.70;99.90
26262;DHT22;13988;52.446;13.280;2022-09-24T14:36:27;16.70;99.90
26262;DHT22;13988;52.446;13.280;2022-09-24T14:39:02;16.80;99.90
26262;DHT22;13988;52.446;13.280;2022-09-24T14:41:31;16.70;99.90
26262;DHT22;13988;52.446;13.280;2022-09-24T14:44:06;16.80;99.90
26262;DHT22;13988;52.446;13.280;2022-09-24T14:46:44;16.70;99.90
26262;DHT22;13988;52.446;13.280;2022-09-24T14:49:25;16.80;99.90
26262;DHT22;13988;52.446;13.280;2022-09-24T14:52:02;16.80;99.90
26262;DHT22;13988;52.446;13.280;2022-09-24T14:54:38;16.50;99.90
26262;DHT22;13988;52.446;13.280;2022-09-24T14:57:24;16.50;99.90
26262;DHT22;13988;52.446;13.280;2022-09-24T14:59:50;16.50;99.90
26262;DHT22;13988;52.446;13.280;2022-09-24T15:02:34;16.60;99.90
26262;DHT22;13988;52.446;13.280;2022-09-24T15:05:04;16.30;99.90
26262;DHT22;13988;52.446;13.280;2022-09-24T15:07:32;16.30;99.90
26262;DHT22;13988;52.446;13.280;2022-09-24T15:09:59;16.20;99.90
26262;DHT22;13988;52.446;13.280;2022-09-24T15:12:32;16.30;99.90
26262;DHT22;13988;52.446;13.280;2022-09-24T15:17:42;16.20;99.90
26262;DHT22;13988;52.446;13.280;2022-09-24T15:20:10;16.20;99.90
26262;DHT22;13988;52.446;13.280;2022-09-24T15:22:36;16.20;99.90
26262;DHT22;13988;52.446;13.280;2022-09-24T15:25:02;16.20;99.90
26262;DHT22;13988;52.446;13.280;2022-09-24T15:27:30;16.10;99.90
26262;DHT22;13988;52.446;13.280;2022-09-24T15:29:57;16.10;99.90
26262;DHT22;13988;52.446;13.280;2022-09-24T15:32:25;16.10;99.90
26262;DHT22;13988;52.446;13.280;2022-09-24T15:34:52;16.00;99.90
26262;DHT22;13988;52.446;13.280;2022-09-24T15:37:26;16.10;99.90
26262;DHT22;13988;52.446;13.280;2022-09-24T15:39:56;16.00;99.90
26262;DHT22;13988;52.446;13.280;2022-09-24T15:42:24;15.90;99.90
26262;DHT22;13988;52.446;13.280;2022-09-24T15:44:51;15.90;99.90
26262;DHT22;13988;52.446;13.280;2022-09-24T15:47:18;15.80;99.90
26262;DHT22;13988;52.446;13.280;2022-09-24T15:49:44;15.80;99.90
26262;DHT22;13988;52.446;13.280;2022-09-24T15:52:16;15.90;99.90
26262;DHT22;13988;52.446;13.280;2022-09-24T15:54:49;15.90;99.90
26262;DHT22;13988;52.446;13.280;2022-09-24T15:57:15;15.90;99.90
26262;DHT22;13988;52.446;13.280;2022-09-24T15:59:41;15.90;99.90
26262;DHT22;13988;52.446;13.280;2022-09-24T16:02:16;15.80;99.90
26262;DHT22;13988;52.446;13.280;2022-09-24T16:04:43;15.70;99.90
26262;DHT22;13988;52.446;13.280;2022-09-24T16:07:08;15.70;99.90
26262;DHT22;13988;52.446;13.280;2022-09-24T16:09:34;15.70;99.90
26262;DHT22;13988;52.446;13.280;2022-09-24T16:11:59;15.70;99.90
26262;DHT22;13988;52.446;13.280;2022-09-24T16:14:25;15.60;99.90
26262;DHT22;13988;52.446;13.280;2022-09-24T16:16:51;15.50;99.90
26262;DHT22;13988;52.446;13.280;2022-09-24T16:19:17;15.40;99.90
26262;DHT22;13988;52.446;13.280;2022-09-24T16:21:42;15.50;99.90
26262;DHT22;13988;52.446;13.280;2022-09-24T16:24:08;15.50;99.90
26262;DHT22;13988;52.446;13.280;2022-09-24T16:26:33;15.40;99.90
26262;DHT22;13988;52.446;13.280;2022-09-24T16:29:03;15.20;99.90
26262;DHT22;13988;52.446;13.280;2022-09-24T16:31:29;15.30;99.90
26262;DHT22;13988;52.446;13.280;2022-09-24T16:33:55;15.40;99.90
26262;DHT22;13988;52.446;13.280;2022-09-24T16:36:21;15.30;99.90
26262;DHT22;13988;52.446;13.280;2022-09-24T16:38:48;15.10;99.90
26262;DHT22;13988;52.446;13.280;2022-09-24T16:41:14;15.00;99.90
26262;DHT22;13988;52.446;13.280;2022-09-24T16:43:40;14.90;99.90
26262;DHT22;13988;52.446;13.280;2022-09-24T16:46:07;14.90;99.90
26262;DHT22;13988;52.446;13.280;2022-09-24T16:48:33;14.90;99.90
26262;DHT22;13988;52.446;13.280;2022-09-24T16:51:04;14.60;99.90
26262;DHT22;13988;52.446;13.280;2022-09-24T16:53:30;14.60;99.90
26262;DHT22;13988;52.446;13.280;2022-09-24T16:56:13;14.60;99.90
26262;DHT22;13988;52.446;13.280;2022-09-24T16:58:40;14.60;99.90
26262;DHT22;13988;52.446;13.280;2022-09-24T17:01:07;14.60;99.90
26262;DHT22;13988;52.446;13.280;2022-09-24T17:03:34;14.60;99.90
26262;DHT22;13988;52.446;13.280;2022-09-24T17:06:00;14.60;99.90
26262;DHT22;13988;52.446;13.280;2022-09-24T17:08:26;14.60;99.90
26262;DHT22;13988;52.446;13.280;2022-09-24T17:11:15;14.60;99.90
26262;DHT22;13988;52.446;13.280;2022-09-24T17:13:41;14.50;99.90
26262;DHT22;13988;52.446;13.280;2022-09-24T17:16:07;14.50;99.90
26262;DHT22;13988;52.446;13.280;2022-09-24T17:18:32;14.40;99.90
26262;DHT22;13988;52.446;13.280;2022-09-24T17:21:10;14.50;99.90
26262;DHT22;13988;52.446;13.280;2022-09-24T17:23:37;14.40;99.90
26262;DHT22;13988;52.446;13.280;2022-09-24T17:26:08;14.40;99.90
26262;DHT22;13988;52.446;13.280;2022-09-24T17:28:37;14.40;99.90
26262;DHT22;13988;52.446;13.280;2022-09-24T17:31:04;14.40;99.90
26262;DHT22;13988;52.446;13.280;2022-09-24T17:33:30;14.40;99.90
26262;DHT22;13988;52.446;13.280;2022-09-24T17:35:58;14.30;99.90